Time;durP1;ratioP1;P1;durP2;ratioP2;P2;SDS_P1;SDS_P2;PMS_P1;PMS_P2;Temp;Humidity;BMP_temperature;BMP_pressure;BME280_temperature;BME280_humidity;BME280_pressure;Samples;Min_cycle;Max_cycle;Signal;HPM_P1;HPM_P2
2022/08/15 00:01:27;;;;;;;6.88;3.58;;;24.50;99.90;;;;;;4987449;28;20209;-61
2022/08/15 00:03:57;;;;;;;11.40;4.38;;;24.40;99.90;;;;;;4974940;28;20199;-62
2022/08/15 00:06:26;;;;;;;4.45;3.78;;;24.50;99.90;;;;;;4963081;28;20234;-61
2022/08/15 00:08:56;;;;;;;4.57;4.10;;;24.40;99.90;;;;;;4977340;28;20207;-61
2022/08/15 00:11:26;;;;;;;5.78;3.85;;;24.50;99.90;;;;;;4977334;28;20221;-61
2022/08/15 00:13:58;;;;;;;6.68;4.43;;;24.40;99.90;;;;;;4991190;28;20249;-61
2022/08/15 00:16:25;;;;;;;6.70;4.10;;;24.40;99.90;;;;;;4985342;28;20206;-61
2022/08/15 00:18:52;;;;;;;4.68;4.20;;;24.40;99.90;;;;;;4967921;28;20668;-61
2022/08/15 00:21:21;;;;;;;6.45;3.70;;;24.40;99.90;;;;;;4961718;28;20214;-61
2022/08/15 00:23:48;;;;;;;4.35;3.95;;;24.40;99.90;;;;;;4988841;28;20230;-61
2022/08/15 00:26:15;;;;;;;5.35;3.75;;;24.30;99.90;;;;;;4975803;28;20223;-61
2022/08/15 00:28:42;;;;;;;5.32;4.00;;;24.30;99.90;;;;;;4988533;28;20203;-61
2022/08/15 00:31:13;;;;;;;8.70;3.67;;;24.30;99.90;;;;;;4991865;28;20202;-61
2022/08/15 00:33:40;;;;;;;6.80;3.90;;;24.30;99.90;;;;;;4974083;28;20294;-61
2022/08/15 00:36:08;;;;;;;5.20;4.45;;;;;;;;;;4971731;28;20210;-61
2022/08/15 00:38:35;;;;;;;6.47;3.78;;;25.30;99.90;;;;;;4969116;28;20699;-61
2022/08/15 00:43:51;;;;;;;7.15;4.38;;;24.10;99.90;;;;;;4990630;28;20263;-61
2022/08/15 00:46:21;;;;;;;6.65;4.05;;;24.00;99.90;;;;;;4991314;28;20227;-61
2022/08/15 00:48:50;;;;;;;6.35;3.72;;;24.00;99.90;;;;;;4959020;28;20997;-61
2022/08/15 00:51:23;;;;;;;6.15;4.20;;;24.00;99.90;;;;;;4989279;28;20296;-61
2022/08/15 00:53:55;;;;;;;4.15;3.75;;;23.90;99.90;;;;;;4959578;28;20214;-61
2022/08/15 00:56:25;;;;;;;3.85;3.55;;;24.00;99.90;;;;;;4963334;28;20230;-61
2022/08/15 00:58:54;;;;;;;6.65;3.85;;;23.80;99.90;;;;;;4988202;28;20230;-61
2022/08/15 01:01:22;;;;;;;4.70;3.83;;;23.80;99.90;;;;;;4982266;28;20205;-61
2022/08/15 01:03:52;;;;;;;6.32;3.72;;;23.80;99.90;;;;;;4982763;28;20206;-61
2022/08/15 01:06:20;;;;;;;7.93;3.97;;;;;;;;;;4967465;28;20241;-61
2022/08/15 01:08:48;;;;;;;6.82;3.97;;;23.70;99.90;;;;;;4956967;28;20578;-61
2022/08/15 01:11:21;;;;;;;10.23;3.70;;;23.60;99.90;;;;;;4968535;28;20681;-61
2022/08/15 01:13:50;;;;;;;4.55;3.63;;;23.60;99.90;;;;;;4978875;28;20829;-61
2022/08/15 01:16:18;;;;;;;4.18;3.78;;;23.60;99.90;;;;;;4982952;28;20191;-61
2022/08/15 01:18:46;;;;;;;4.25;3.85;;;23.60;99.90;;;;;;4983987;28;20295;-61
2022/08/15 01:21:21;;;;;;;4.97;4.25;;;23.50;99.90;;;;;;4967331;28;20441;-61
2022/08/15 01:24:03;;;;;;;6.53;3.30;;;23.50;99.90;;;;;;4959515;28;21062;-61
2022/08/15 01:26:33;;;;;;;5.78;3.50;;;23.50;99.90;;;;;;4968035;28;20235;-61
2022/08/15 01:29:01;;;;;;;4.25;3.85;;;23.40;99.90;;;;;;4984982;28;20199;-61
2022/08/15 01:31:31;;;;;;;13.40;3.70;;;23.20;99.90;;;;;;4983799;28;20633;-61
2022/08/15 01:33:59;;;;;;;7.50;3.65;;;23.30;99.90;;;;;;4985617;28;20288;-61
2022/08/15 01:36:28;;;;;;;5.38;3.88;;;23.30;99.90;;;;;;4971447;28;20199;-61
2022/08/15 01:39:02;;;;;;;6.10;3.97;;;23.30;99.90;;;;;;4957482;28;20215;-61
2022/08/15 01:41:37;;;;;;;7.28;3.70;;;23.20;99.90;;;;;;4964318;28;20382;-62
2022/08/15 01:44:19;;;;;;;7.38;3.70;;;23.20;99.90;;;;;;4984797;28;20190;-61
2022/08/15 01:46:51;;;;;;;7.43;3.90;;;23.20;99.90;;;;;;4987985;28;20789;-61
2022/08/15 01:49:24;;;;;;;8.07;3.83;;;23.10;99.90;;;;;;4989353;28;20688;-61
2022/08/15 01:51:54;;;;;;;9.18;4.05;;;23.10;99.90;;;;;;4974664;28;20596;-61
2022/08/15 01:54:23;;;;;;;5.38;3.58;;;23.10;99.90;;;;;;4958608;28;20859;-61
2022/08/15 01:56:52;;;;;;;4.85;4.07;;;23.00;99.90;;;;;;4993796;28;20215;-61
2022/08/15 01:59:22;;;;;;;5.20;3.95;;;23.10;99.90;;;;;;4975137;28;20258;-61
2022/08/15 02:01:51;;;;;;;8.63;3.80;;;23.00;99.90;;;;;;4992152;28;20205;-61
2022/08/15 02:04:21;;;;;;;6.97;4.25;;;23.00;99.90;;;;;;4990447;28;20199;-61
2022/08/15 02:06:49;;;;;;;8.38;3.60;;;23.00;99.90;;;;;;4978874;28;20264;-61
2022/08/15 02:09:19;;;;;;;5.75;3.60;;;23.00;99.90;;;;;;4991291;28;20207;-61
2022/08/15 02:11:46;;;;;;;6.28;3.60;;;23.00;99.90;;;;;;4971055;28;20215;-61
2022/08/15 02:14:14;;;;;;;4.68;3.38;;;23.10;99.90;;;;;;4976264;28;20217;-61
2022/08/15 02:16:42;;;;;;;6.50;3.95;;;23.00;99.90;;;;;;4994217;28;20203;-61
2022/08/15 02:19:12;;;;;;;8.45;3.80;;;23.00;99.90;;;;;;4991144;28;20214;-61
2022/08/15 02:21:41;;;;;;;4.00;3.70;;;23.00;99.90;;;;;;4995544;28;20203;-61
2022/08/15 02:24:10;;;;;;;4.28;3.88;;;23.00;99.90;;;;;;4976603;28;20969;-61
2022/08/15 02:26:36;;;;;;;3.90;3.50;;;23.10;99.90;;;;;;4967057;28;20231;-61
2022/08/15 02:29:04;;;;;;;5.85;3.60;;;23.00;99.90;;;;;;4973893;28;20214;-61
2022/08/15 02:31:33;;;;;;;4.40;3.60;;;23.00;1.00;;;;;;4990499;28;20691;-61
2022/08/15 02:34:03;;;;;;;8.55;3.80;;;23.00;1.00;;;;;;4981716;28;20214;-61
2022/08/15 02:36:32;;;;;;;7.65;3.97;;;23.00;1.00;;;;;;4990590;28;20273;-61
2022/08/15 02:39:01;;;;;;;8.63;4.10;;;23.00;1.00;;;;;;4975709;28;20206;-60
2022/08/15 02:41:31;;;;;;;7.43;3.90;;;22.90;1.00;;;;;;4995606;28;20195;-61
2022/08/15 02:43:59;;;;;;;7.90;3.80;;;22.80;1.00;;;;;;4952666;28;20349;-61
2022/08/15 02:46:26;;;;;;;3.95;3.55;;;22.80;1.00;;;;;;4993670;28;20231;-61
2022/08/15 02:48:54;;;;;;;4.05;3.65;;;22.70;1.00;;;;;;4980609;28;20211;-61
2022/08/15 02:51:23;;;;;;;7.68;4.05;;;22.70;1.00;;;;;;4994790;28;20191;-61
2022/08/15 02:53:51;;;;;;;6.03;3.70;;;22.60;1.00;;;;;;4980359;28;20241;-61
2022/08/15 02:56:21;;;;;;;6.30;3.90;;;22.70;1.00;;;;;;4995134;28;20214;-61
2022/08/15 02:58:48;;;;;;;6.35;3.95;;;22.70;1.00;;;;;;4962034;28;20234;-61
2022/08/15 03:01:17;;;;;;;6.25;3.70;;;22.70;1.00;;;;;;4979067;28;20578;-61
2022/08/15 03:03:46;;;;;;;4.43;4.00;;;22.70;1.00;;;;;;4977172;28;20206;-61
2022/08/15 03:06:17;;;;;;;4.30;3.90;;;22.80;1.00;;;;;;4993278;28;20576;-61
2022/08/15 03:08:45;;;;;;;5.82;3.65;;;22.80;1.00;;;;;;4988919;28;20206;-61
2022/08/15 03:11:13;;;;;;;4.38;3.80;;;22.80;1.00;;;;;;4978867;28;20210;-61
2022/08/15 03:13:41;;;;;;;4.88;3.95;;;22.90;1.00;;;;;;4964746;28;20215;-61
2022/08/15 03:16:10;;;;;;;4.55;4.13;;;22.90;1.00;;;;;;4978896;28;20233;-61
2022/08/15 03:18:41;;;;;;;6.57;4.32;;;21.20;1.00;;;;;;4992084;28;20253;-61
2022/08/15 03:21:11;;;;;;;8.05;4.00;;;22.90;1.00;;;;;;4980103;28;20199;-61
2022/08/15 03:23:46;;;;;;;4.15;3.50;;;22.90;1.00;;;;;;4990054;28;20680;-61
2022/08/15 03:26:13;;;;;;;5.45;3.80;;;22.40;1.00;;;;;;4978983;28;20246;-61
2022/08/15 03:28:40;;;;;;;4.68;3.53;;;22.70;1.00;;;;;;4965350;28;20326;-61
2022/08/15 03:31:07;;;;;;;6.63;3.88;;;22.80;1.00;;;;;;4979556;28;20210;-61
2022/08/15 03:33:36;;;;;;;5.38;3.70;;;22.80;1.00;;;;;;4989598;28;20198;-61
2022/08/15 03:36:04;;;;;;;8.95;4.10;;;22.80;1.00;;;;;;4973357;28;20202;-61
2022/08/15 03:38:31;;;;;;;4.75;4.00;;;22.80;1.00;;;;;;4990693;28;20194;-61
2022/08/15 03:40:59;;;;;;;8.30;4.28;;;22.50;1.00;;;;;;4974086;28;20213;-61
2022/08/15 03:43:29;;;;;;;5.13;4.22;;;22.50;1.00;;;;;;4990570;28;20222;-61
2022/08/15 03:46:00;;;;;;;5.78;3.85;;;22.20;8.10;;;;;;4959671;28;20314;-61
2022/08/15 03:48:29;;;;;;;6.15;4.38;;;23.60;21.80;;;;;;4986301;28;20206;-61
2022/08/15 03:50:58;;;;;;;8.15;3.90;;;20.80;99.90;;;;;;4987460;28;20211;-61
2022/08/15 03:53:27;;;;;;;8.30;4.32;;;22.00;99.90;;;;;;4983730;28;20199;-61
2022/08/15 03:55:53;;;;;;;4.85;4.05;;;22.00;99.90;;;;;;4992146;28;20242;-61
2022/08/15 03:58:22;;;;;;;6.30;3.90;;;22.10;1.00;;;;;;4980788;28;20214;-60
2022/08/15 04:00:50;;;;;;;6.30;4.10;;;22.00;1.00;;;;;;4966388;28;20211;-61
2022/08/15 04:03:20;;;;;;;7.25;3.97;;;22.00;1.00;;;;;;4980710;28;20293;-61
2022/08/15 04:05:50;;;;;;;4.50;4.10;;;22.20;1.00;;;;;;4992068;28;21391;-61
2022/08/15 04:08:18;;;;;;;5.32;3.63;;;22.40;99.90;;;;;;4990746;28;20203;-61
2022/08/15 04:10:46;;;;;;;6.45;3.92;;;22.30;99.90;;;;;;4993008;28;20202;-61
2022/08/15 04:13:13;;;;;;;5.28;4.22;;;22.40;99.90;;;;;;4960612;28;20226;-61
2022/08/15 04:15:42;;;;;;;6.20;4.35;;;22.30;99.90;;;;;;4960384;28;20237;-61
2022/08/15 04:18:10;;;;;;;5.00;3.80;;;22.30;99.90;;;;;;4943987;28;20273;-61
2022/08/15 04:20:37;;;;;;;4.28;3.83;;;22.30;98.60;;;;;;4984377;28;20195;-61
2022/08/15 04:23:05;;;;;;;8.35;4.43;;;22.30;99.90;;;;;;4972193;28;21157;-61
2022/08/15 04:25:34;;;;;;;8.88;4.00;;;22.30;99.90;;;;;;4979189;28;20202;-61
2022/08/15 04:28:03;;;;;;;8.02;4.15;;;22.30;99.90;;;;;;4968207;28;20226;-61
2022/08/15 04:30:32;;;;;;;3.90;3.60;;;22.30;99.60;;;;;;4953121;28;20246;-61
2022/08/15 04:33:10;;;;;;;5.93;4.07;;;21.20;96.50;;;;;;4966031;28;20239;-61
2022/08/15 04:35:38;;;;;;;4.28;3.90;;;22.30;99.90;;;;;;4976095;28;20206;-61
2022/08/15 04:38:04;;;;;;;4.80;3.90;;;22.50;99.90;;;;;;4982739;28;20203;-60
2022/08/15 04:40:32;;;;;;;11.50;4.38;;;22.20;99.30;;;;;;4972123;28;20791;-61
2022/08/15 04:42:59;;;;;;;4.32;3.97;;;22.30;99.90;;;;;;4970208;28;20365;-61
2022/08/15 04:45:30;;;;;;;9.20;3.47;;;22.30;98.20;;;;;;4952673;28;20215;-61
2022/08/15 04:47:57;;;;;;;7.45;3.97;;;22.10;99.90;;;;;;4972803;28;20250;-61
2022/08/15 04:50:25;;;;;;;4.97;3.75;;;22.30;99.90;;;;;;4971915;28;20230;-61
2022/08/15 04:52:54;;;;;;;4.28;3.88;;;22.30;99.90;;;;;;4970067;28;20226;-61
2022/08/15 04:55:24;;;;;;;4.00;3.63;;;22.20;99.90;;;;;;4980175;28;20219;-61
2022/08/15 04:57:51;;;;;;;5.30;3.67;;;22.20;99.90;;;;;;4972538;28;20304;-61
2022/08/15 05:00:21;;;;;;;6.35;4.13;;;22.40;99.90;;;;;;4969442;28;20238;-61
2022/08/15 05:03:00;;;;;;;3.65;3.35;;;22.30;99.90;;;;;;4946211;28;20836;-61
2022/08/15 05:05:29;;;;;;;7.90;3.65;;;22.20;99.90;;;;;;4993562;28;20199;-61
2022/08/15 05:07:56;;;;;;;9.43;3.95;;;22.30;99.90;;;;;;4971254;28;20242;-61
2022/08/15 05:10:23;;;;;;;5.72;3.90;;;22.20;99.90;;;;;;4978949;28;20930;-62
2022/08/15 05:12:49;;;;;;;5.65;3.95;;;22.20;99.90;;;;;;4978742;28;20199;-62
2022/08/15 05:15:19;;;;;;;8.73;3.97;;;22.20;99.90;;;;;;4961526;28;20468;-61
2022/08/15 05:17:47;;;;;;;4.40;3.38;;;22.20;99.90;;;;;;4957208;28;20221;-61
2022/08/15 05:20:14;;;;;;;6.15;3.88;;;;;;;;;;4971076;28;20270;-61
2022/08/15 05:22:57;;;;;;;5.13;3.63;;;22.20;99.90;;;;;;4986277;28;20234;-62
2022/08/15 05:25:24;;;;;;;9.57;3.80;;;22.20;99.90;;;;;;4975175;28;20207;-61
2022/08/15 05:27:51;;;;;;;5.28;3.70;;;22.20;99.90;;;;;;4980026;28;20720;-62
2022/08/15 05:30:19;;;;;;;4.20;3.80;;;22.20;99.90;;;;;;4956594;28;20211;-61
2022/08/15 05:32:47;;;;;;;4.15;3.85;;;22.20;99.90;;;;;;4957291;28;20222;-61
2022/08/15 05:35:15;;;;;;;4.70;3.70;;;22.20;99.90;;;;;;4968754;28;20211;-62
2022/08/15 05:37:44;;;;;;;6.28;3.90;;;22.20;99.90;;;;;;4981812;28;20572;-62
2022/08/15 05:40:13;;;;;;;5.28;4.45;;;21.90;99.90;;;;;;4987789;28;20758;-62
2022/08/15 05:42:48;;;;;;;5.47;4.20;;;22.10;99.90;;;;;;4970199;28;20214;-62
2022/08/15 05:45:25;;;;;;;4.05;3.75;;;22.10;99.90;;;;;;4962441;28;20206;-62
2022/08/15 05:48:00;;;;;;;4.90;3.28;;;22.10;99.90;;;;;;4961709;28;20223;-61
2022/08/15 05:50:31;;;;;;;8.00;4.13;;;22.10;99.90;;;;;;4971717;28;20214;-61
2022/08/15 05:53:08;;;;;;;6.75;3.70;;;21.90;99.90;;;;;;4981606;28;20676;-62
2022/08/15 05:55:41;;;;;;;8.65;4.30;;;22.00;99.90;;;;;;4986250;28;20202;-62
2022/08/15 05:58:26;;;;;;;7.85;4.38;;;22.00;99.90;;;;;;4974754;28;20962;-62
2022/08/15 06:01:01;;;;;;;7.50;4.13;;;22.10;1.00;;;;;;4969113;28;20229;-61
2022/08/15 06:03:29;;;;;;;5.80;3.70;;;22.00;99.90;;;;;;4961587;28;20244;-61
2022/08/15 06:05:57;;;;;;;4.57;3.97;;;22.10;1.00;;;;;;4972756;28;20830;-62
2022/08/15 06:08:28;;;;;;;5.30;4.05;;;22.00;1.00;;;;;;4993682;28;20236;-61
2022/08/15 06:11:03;;;;;;;5.45;4.30;;;22.00;1.00;;;;;;4989154;28;20203;-61
2022/08/15 06:13:33;;;;;;;6.25;4.20;;;22.00;1.00;;;;;;4979841;28;21396;-61
2022/08/15 06:16:06;;;;;;;5.50;3.80;;;22.00;1.00;;;;;;4986573;28;20247;-62
2022/08/15 06:18:35;;;;;;;8.73;4.07;;;22.00;1.00;;;;;;4964571;28;20829;-62
2022/08/15 06:21:08;;;;;;;14.30;4.68;;;21.80;1.00;;;;;;4972873;28;20203;-62
2022/08/15 06:23:49;;;;;;;5.13;4.20;;;22.00;1.00;;;;;;4988698;28;20195;-62
2022/08/15 06:26:31;;;;;;;7.85;3.90;;;21.90;1.00;;;;;;4979042;28;20688;-61
2022/08/15 06:29:13;;;;;;;7.65;4.53;;;21.90;1.00;;;;;;4981794;28;20218;-62
2022/08/15 06:31:45;;;;;;;4.93;3.95;;;21.90;1.00;;;;;;4988177;28;20203;-63
2022/08/15 06:34:22;;;;;;;5.93;4.00;;;21.90;1.00;;;;;;4949376;28;20206;-61
2022/08/15 06:36:54;;;;;;;4.95;4.10;;;22.00;1.00;;;;;;4974818;28;20256;-63
2022/08/15 06:39:30;;;;;;;4.30;3.90;;;22.00;1.00;;;;;;4978669;28;20198;-61
2022/08/15 06:42:07;;;;;;;6.82;4.75;;;22.10;1.00;;;;;;4977127;28;20222;-62
2022/08/15 06:44:34;;;;;;;6.80;4.50;;;22.20;1.00;;;;;;4990749;28;20203;-62
2022/08/15 06:47:03;;;;;;;7.50;4.45;;;22.30;1.00;;;;;;4986983;28;22835;-62
2022/08/15 06:49:33;;;;;;;6.15;3.95;;;23.00;1.00;;;;;;4965178;28;20222;-62
2022/08/15 06:52:01;;;;;;;6.65;4.85;;;22.40;1.00;;;;;;4973137;28;20687;-62
2022/08/15 06:54:29;;;;;;;5.20;4.45;;;22.50;1.00;;;;;;4979160;28;20206;-61
2022/08/15 06:57:05;;;;;;;5.47;4.35;;;22.10;1.00;;;;;;4984954;28;20317;-61
2022/08/15 06:59:38;;;;;;;10.15;4.45;;;22.60;1.00;;;;;;4989759;28;20241;-62
2022/08/15 07:02:18;;;;;;;4.60;4.13;;;22.60;1.00;;;;;;4985877;28;21029;-62
2022/08/15 07:04:58;;;;;;;6.80;4.80;;;22.70;1.00;;;;;;4968651;28;22426;-61
2022/08/15 07:07:34;;;;;;;6.97;4.38;;;22.70;1.00;;;;;;4977287;28;20238;-62
2022/08/15 07:10:08;;;;;;;5.95;4.43;;;22.80;1.00;;;;;;4977227;28;20723;-62
2022/08/15 07:12:42;;;;;;;6.35;4.72;;;22.90;1.00;;;;;;4978494;28;20229;-62
2022/08/15 07:15:16;;;;;;;4.82;3.97;;;22.90;1.00;;;;;;4978600;28;20198;-62
2022/08/15 07:17:48;;;;;;;9.18;4.65;;;22.80;1.00;;;;;;4979528;28;20257;-61
2022/08/15 07:20:15;;;;;;;12.68;4.78;;;23.00;1.00;;;;;;4963753;28;20211;-61
2022/08/15 07:22:43;;;;;;;7.85;5.13;;;23.30;1.00;;;;;;4968254;28;20316;-61
2022/08/15 07:25:12;;;;;;;5.07;4.57;;;23.10;1.00;;;;;;4975305;28;20203;-62
2022/08/15 07:27:40;;;;;;;5.10;4.25;;;23.10;1.00;;;;;;4986793;28;20234;-62
2022/08/15 07:30:18;;;;;;;5.50;4.57;;;23.20;1.00;;;;;;4986249;28;20202;-61
2022/08/15 07:32:52;;;;;;;13.43;4.60;;;23.20;1.00;;;;;;4986314;28;20655;-61
2022/08/15 07:35:23;;;;;;;6.40;4.95;;;23.20;99.90;;;;;;4965320;28;20211;-62
2022/08/15 07:37:58;;;;;;;7.05;5.10;;;23.30;99.90;;;;;;4972409;28;20212;-62
2022/08/15 07:40:30;;;;;;;4.85;4.25;;;23.30;99.90;;;;;;4980467;28;20242;-62
2022/08/15 07:43:00;;;;;;;5.13;4.57;;;23.40;99.90;;;;;;4971594;28;20672;-62
2022/08/15 07:45:31;;;;;;;6.10;4.90;;;23.40;99.90;;;;;;4989226;28;20222;-62
2022/08/15 07:47:59;;;;;;;5.78;5.18;;;23.40;99.90;;;;;;4986232;28;20219;-62
2022/08/15 07:50:34;;;;;;;7.10;4.70;;;23.60;99.90;;;;;;4991220;28;20206;-62
2022/08/15 07:53:10;;;;;;;5.55;5.05;;;22.20;99.90;;;;;;4944515;28;20284;-62
2022/08/15 07:55:37;;;;;;;8.20;4.80;;;23.50;99.90;;;;;;4974941;28;20222;-62
2022/08/15 07:58:14;;;;;;;6.22;5.25;;;23.40;99.90;;;;;;4967464;28;20205;-62
2022/08/15 08:00:41;;;;;;;5.10;4.63;;;23.80;99.90;;;;;;4989832;28;20205;-62
2022/08/15 08:03:16;;;;;;;5.93;4.97;;;23.80;99.90;;;;;;4985928;28;20579;-62
2022/08/15 08:05:52;;;;;;;6.22;5.13;;;23.80;99.90;;;;;;4988040;28;20298;-63
2022/08/15 08:08:23;;;;;;;7.90;5.20;;;23.90;61.40;;;;;;4950470;28;20815;-61
2022/08/15 08:10:55;;;;;;;7.85;5.15;;;23.80;61.30;;;;;;4969653;28;20207;-61
2022/08/15 08:13:35;;;;;;;7.63;4.85;;;23.90;69.40;;;;;;4973761;28;20573;-61
2022/08/15 08:16:07;;;;;;;7.57;4.68;;;23.90;45.10;;;;;;4970004;28;20687;-61
2022/08/15 08:18:45;;;;;;;5.18;4.50;;;23.90;94.60;;;;;;4979683;28;20782;-61
2022/08/15 08:21:19;;;;;;;9.73;5.60;;;24.00;92.10;;;;;;4979372;28;20225;-62
2022/08/15 08:23:51;;;;;;;11.27;5.80;;;24.10;91.10;;;;;;4957156;28;20223;-61
2022/08/15 08:26:28;;;;;;;7.05;4.65;;;24.10;94.40;;;;;;4963535;28;21010;-61
2022/08/15 08:29:03;;;;;;;8.02;5.28;;;24.00;48.00;;;;;;4989271;28;20226;-62
2022/08/15 08:31:40;;;;;;;13.77;5.78;;;24.10;1.00;;;;;;4974742;28;20213;-61
2022/08/15 08:34:17;;;;;;;11.65;5.28;;;23.90;1.00;;;;;;4982158;28;20779;-61
2022/08/15 08:36:55;;;;;;;9.40;5.53;;;24.20;1.00;;;;;;4975822;28;20194;-61
2022/08/15 08:39:34;;;;;;;8.23;5.05;;;24.20;1.00;;;;;;4939029;28;20210;-61
2022/08/15 08:42:13;;;;;;;9.35;4.90;;;24.10;1.00;;;;;;4951779;28;20198;-61
2022/08/15 08:44:50;;;;;;;7.05;5.10;;;24.30;1.00;;;;;;4977497;28;20207;-61
2022/08/15 08:47:39;;;;;;;8.30;5.15;;;24.30;1.00;;;;;;4967917;28;20744;-61
2022/08/15 08:50:21;;;;;;;12.32;5.75;;;24.30;1.00;;;;;;4980341;28;20708;-61
2022/08/15 08:52:58;;;;;;;10.85;5.30;;;24.70;1.00;;;;;;4948394;28;20405;-61
2022/08/15 08:55:29;;;;;;;6.82;5.18;;;24.40;1.00;;;;;;4965330;28;20202;-61
2022/08/15 08:58:02;;;;;;;8.98;5.22;;;24.40;1.00;;;;;;4957219;28;20226;-62
2022/08/15 09:00:38;;;;;;;9.95;5.70;;;24.40;1.00;;;;;;4979632;28;20246;-61
2022/08/15 09:03:14;;;;;;;8.85;5.70;;;24.30;1.00;;;;;;4953558;28;20791;-61
2022/08/15 09:05:51;;;;;;;17.25;6.45;;;24.40;1.00;;;;;;4972125;28;20305;-61
2022/08/15 09:08:24;;;;;;;7.88;5.40;;;24.40;1.00;;;;;;4977502;28;20226;-61
2022/08/15 09:10:55;;;;;;;7.63;5.00;;;24.40;1.00;;;;;;4940778;28;20343;-61
2022/08/15 09:13:35;;;;;;;9.13;5.82;;;24.40;1.00;;;;;;4972605;28;20635;-61
2022/08/15 09:16:11;;;;;;;10.75;5.60;;;24.40;1.00;;;;;;4965884;28;20218;-61
2022/08/15 09:18:45;;;;;;;8.98;5.68;;;24.50;1.00;;;;;;4971867;28;20226;-62
2022/08/15 09:21:12;;;;;;;7.20;5.35;;;24.50;1.00;;;;;;4982987;28;20210;-62
2022/08/15 09:26:15;;;;;;;13.45;5.90;;;24.70;1.00;;;;;;5087865;22;20357;-63
2022/08/15 09:28:45;;;;;;;6.80;5.60;;;24.70;1.00;;;;;;5009560;28;20228;-63
2022/08/15 09:31:17;;;;;;;12.18;6.30;;;24.90;1.00;;;;;;5009552;28;20205;-63
2022/08/15 09:34:00;;;;;;;6.80;5.57;;;24.90;1.00;;;;;;5013439;28;20742;-63
2022/08/15 09:37:03;;;;;;;6.70;6.00;;;25.00;1.00;;;;;;5027614;28;20228;-63
2022/08/15 09:39:43;;;;;;;14.13;5.38;;;25.10;1.00;;;;;;4997924;28;20205;-63
2022/08/15 09:42:25;;;;;;;5.97;5.38;;;25.10;1.00;;;;;;5003825;28;20193;-62
2022/08/15 09:45:09;;;;;;;9.60;5.65;;;25.00;1.00;;;;;;5012741;28;20205;-63
2022/08/15 09:47:51;;;;;;;12.40;5.90;;;25.30;1.00;;;;;;5027409;28;20201;-62
2022/08/15 09:50:43;;;;;;;6.18;5.55;;;25.50;99.90;;;;;;5015583;28;20208;-62
2022/08/15 09:53:22;;;;;;;6.63;5.78;;;25.70;99.90;;;;;;5024713;28;20198;-62
2022/08/15 09:55:51;;;;;;;6.53;5.47;;;24.90;99.90;;;;;;4997455;28;20556;-63
2022/08/15 09:58:22;;;;;;;13.30;5.57;;;26.10;99.90;;;;;;5028357;28;20247;-62
2022/08/15 10:01:00;;;;;;;6.65;5.78;;;26.20;99.90;;;;;;5006085;28;21284;-62
2022/08/15 10:03:59;;;;;;;8.52;5.30;;;26.20;99.90;;;;;;5023225;28;20197;-62
2022/08/15 10:06:29;;;;;;;7.75;5.40;;;26.20;99.90;;;;;;5029077;28;20288;-62
2022/08/15 10:09:15;;;;;;;6.60;5.88;;;26.10;99.90;;;;;;5019545;28;20394;-63
2022/08/15 10:12:19;;;;;;;6.28;5.65;;;26.20;99.90;;;;;;5007306;28;20289;-63
2022/08/15 10:15:02;;;;;;;6.63;5.80;;;26.20;99.90;;;;;;5018755;28;20238;-63
2022/08/15 10:17:43;;;;;;;6.63;5.35;;;26.20;99.90;;;;;;5032870;28;20726;-63
2022/08/15 10:20:44;;;;;;;11.38;5.70;;;26.30;99.90;;;;;;5020697;28;20210;-63
2022/08/15 10:23:15;;;;;;;6.47;5.43;;;26.40;99.90;;;;;;5031076;28;21214;-63
2022/08/15 10:25:45;;;;;;;8.13;5.55;;;26.50;99.90;;;;;;5027756;28;20257;-63
2022/08/15 10:28:22;;;;;;;8.57;5.47;;;26.60;99.90;;;;;;5002573;28;20221;-63
2022/08/15 10:31:21;;;;;;;6.50;5.53;;;26.70;99.90;;;;;;5009392;28;20232;-63
2022/08/15 10:33:52;;;;;;;6.35;5.75;;;26.70;99.90;;;;;;5015200;28;21676;-62
2022/08/15 10:36:25;;;;;;;11.77;5.50;;;26.70;99.90;;;;;;5009399;28;20232;-62
2022/08/15 10:39:12;;;;;;;9.70;6.10;;;27.00;99.90;;;;;;5003393;28;20517;-63
2022/08/15 10:41:57;;;;;;;7.45;6.28;;;27.00;99.90;;;;;;5025816;28;20820;-63
2022/08/15 10:44:42;;;;;;;9.55;5.88;;;27.10;99.90;;;;;;4995387;28;20240;-63
2022/08/15 10:47:19;;;;;;;7.38;6.10;;;27.10;99.90;;;;;;5022335;22;20512;-62
2022/08/15 10:49:58;;;;;;;9.13;5.95;;;27.20;99.90;;;;;;4995824;28;20226;-63
2022/08/15 10:52:34;;;;;;;9.98;7.32;;;27.20;99.90;;;;;;5010840;28;20214;-63
2022/08/15 10:55:25;;;;;;;9.27;5.80;;;27.40;99.90;;;;;;5007662;28;20214;-62
2022/08/15 10:57:56;;;;;;;6.57;5.97;;;27.40;99.90;;;;;;5007220;28;20233;-63
2022/08/15 11:00:50;;;;;;;7.05;5.93;;;27.40;99.90;;;;;;4984826;28;20202;-63
2022/08/15 11:03:25;;;;;;;8.50;6.38;;;27.50;99.90;;;;;;4998611;28;20218;-63
2022/08/15 11:05:56;;;;;;;7.88;5.72;;;;;;;;;;4990986;28;20186;-63
2022/08/15 11:08:24;;;;;;;10.48;5.90;;;27.60;99.90;;;;;;5007427;28;20225;-63
2022/08/15 11:10:53;;;;;;;9.45;6.10;;;27.60;99.90;;;;;;5005886;28;20714;-63
2022/08/15 11:13:24;;;;;;;7.45;5.45;;;27.60;74.70;;;;;;5007949;28;20198;-63
2022/08/15 11:15:56;;;;;;;6.13;5.53;;;27.80;90.10;;;;;;4964905;28;20261;-63
2022/08/15 11:18:28;;;;;;;9.73;5.88;;;27.80;64.30;;;;;;4993918;28;20229;-63
2022/08/15 11:20:59;;;;;;;10.05;6.00;;;27.80;56.30;;;;;;4982213;28;20265;-63
2022/08/15 11:23:41;;;;;;;11.25;6.22;;;27.90;99.90;;;;;;4973365;28;20618;-63
2022/08/15 11:26:13;;;;;;;7.78;6.38;;;27.90;95.10;;;;;;4988390;28;20222;-63
2022/08/15 11:28:41;;;;;;;7.43;5.70;;;27.90;68.10;;;;;;4992136;28;20381;-63
2022/08/15 11:31:16;;;;;;;6.85;6.13;;;27.90;51.80;;;;;;4970524;28;20209;-63
2022/08/15 11:33:46;;;;;;;8.07;6.55;;;28.00;39.60;;;;;;4987662;28;20426;-64
2022/08/15 11:36:18;;;;;;;6.20;5.60;;;28.00;26.30;;;;;;5003385;28;20617;-62
2022/08/15 11:38:47;;;;;;;6.05;5.40;;;28.10;22.10;;;;;;4995041;28;20205;-63
2022/08/15 11:41:22;;;;;;;11.65;5.78;;;28.20;3.00;;;;;;4998762;28;20202;-63
2022/08/15 11:43:52;;;;;;;6.47;5.35;;;28.20;1.00;;;;;;4999430;28;20708;-62
2022/08/15 11:46:19;;;;;;;9.38;5.78;;;28.20;2.10;;;;;;4958425;28;20756;-63
2022/08/15 11:48:51;;;;;;;7.43;5.72;;;28.20;1.00;;;;;;4989193;28;20233;-62
2022/08/15 11:51:28;;;;;;;11.02;6.05;;;28.30;1.00;;;;;;5005591;28;20198;-63
2022/08/15 11:54:24;;;;;;;8.35;6.00;;;28.40;1.00;;;;;;4993728;28;20288;-62
2022/08/15 11:56:56;;;;;;;11.60;6.88;;;28.60;1.00;;;;;;5007403;28;20206;-63
2022/08/15 11:59:25;;;;;;;6.57;5.93;;;28.60;1.00;;;;;;4993325;28;20211;-64
2022/08/15 12:02:14;;;;;;;6.70;5.97;;;27.60;1.00;;;;;;4969202;28;20229;-63
2022/08/15 12:04:43;;;;;;;7.47;5.25;;;28.30;1.00;;;;;;4996975;28;20424;-63
2022/08/15 12:07:15;;;;;;;8.55;5.95;;;28.30;1.00;;;;;;5000074;28;20213;-63
2022/08/15 12:09:54;;;;;;;6.22;5.53;;;28.40;1.00;;;;;;4978112;28;20475;-63
2022/08/15 12:12:29;;;;;;;9.77;5.82;;;28.40;1.00;;;;;;4995160;28;20233;-63
2022/08/15 12:15:01;;;;;;;8.50;5.57;;;28.50;1.00;;;;;;4991057;28;20199;-63
2022/08/15 12:17:30;;;;;;;6.40;5.78;;;28.50;1.00;;;;;;4975033;28;20699;-63
2022/08/15 12:19:58;;;;;;;11.23;7.53;;;28.60;1.00;;;;;;4993769;28;20202;-63
2022/08/15 12:22:33;;;;;;;7.68;5.82;;;29.40;1.00;;;;;;4997196;28;20205;-63
2022/08/15 12:25:01;;;;;;;11.90;5.75;;;28.80;1.00;;;;;;4988328;28;20222;-63
2022/08/15 12:27:29;;;;;;;6.80;6.00;;;28.90;1.00;;;;;;4999164;28;20206;-63
2022/08/15 12:29:56;;;;;;;10.32;6.07;;;28.90;1.00;;;;;;4979515;28;20237;-63
2022/08/15 12:32:23;;;;;;;6.82;5.40;;;28.80;1.00;;;;;;4974712;28;20233;-63
2022/08/15 12:34:53;;;;;;;8.13;5.90;;;28.80;1.00;;;;;;4975002;28;20233;-63
2022/08/15 12:37:24;;;;;;;6.72;4.90;;;28.80;1.00;;;;;;5003863;28;20206;-63
2022/08/15 12:39:53;;;;;;;9.75;5.72;;;28.60;1.00;;;;;;4979991;28;20206;-63
2022/08/15 12:42:23;;;;;;;8.57;5.85;;;27.70;1.00;;;;;;5006849;28;20210;-63
2022/08/15 12:44:55;;;;;;;11.43;5.65;;;28.70;1.00;;;;;;4987530;28;20256;-62
2022/08/15 12:47:23;;;;;;;6.95;6.22;;;28.60;1.00;;;;;;5002191;28;20229;-63
2022/08/15 12:49:51;;;;;;;11.93;5.82;;;26.90;1.00;;;;;;4950762;28;20234;-63
2022/08/15 12:52:20;;;;;;;8.18;6.10;;;28.60;1.00;;;;;;5000205;28;20218;-63
2022/08/15 12:54:47;;;;;;;7.20;6.47;;;28.60;1.00;;;;;;4988074;28;20210;-64
2022/08/15 12:57:14;;;;;;;6.47;4.88;;;;;;;;;;4996052;28;20682;-63
2022/08/15 12:59:42;;;;;;;9.50;5.43;;;28.50;1.00;;;;;;5003026;28;20920;-62
2022/08/15 13:02:11;;;;;;;8.80;5.57;;;28.50;1.00;;;;;;4992622;28;20219;-63
2022/08/15 13:04:38;;;;;;;8.75;5.45;;;28.50;1.00;;;;;;4966101;28;20210;-63
2022/08/15 13:07:05;;;;;;;7.07;5.10;;;28.50;1.00;;;;;;4994142;28;20212;-63
2022/08/15 13:09:33;;;;;;;6.40;5.80;;;28.50;1.00;;;;;;5000912;28;20233;-63
2022/08/15 13:12:01;;;;;;;8.05;5.90;;;28.50;1.00;;;;;;4983868;28;20671;-63
2022/08/15 13:14:28;;;;;;;10.25;5.47;;;27.20;1.00;;;;;;5000028;28;20333;-63
2022/08/15 13:16:56;;;;;;;8.27;6.22;;;28.40;1.00;;;;;;4983247;28;20221;-63
2022/08/15 13:19:27;;;;;;;8.60;5.50;;;28.40;1.00;;;;;;4969290;28;20218;-63
2022/08/15 13:24:39;;;;;;;10.52;5.97;;;28.40;1.00;;;;;;5001762;28;20232;-62
2022/08/15 13:27:08;;;;;;;7.85;5.82;;;28.30;1.00;;;;;;4979019;28;20299;-63